Time;durP1;ratioP1;P1;durP2;ratioP2;P2;SDS_P1;SDS_P2;PMS_P1;PMS_P2;Temp;Humidity;BMP_temperature;BMP_pressure;BME280_temperature;BME280_humidity;BME280_pressure;Samples;Min_cycle;Max_cycle;Signal;HPM_P1;HPM_P2
2021/01/07 00:00:56;;;;;;;;;;;4.70;77.50;;;;;;4903952;28;19933;-44
2021/01/07 00:03:23;;;;;;;;;;;4.70;77.70;;;;;;4914449;28;19934;-44
2021/01/07 00:05:49;;;;;;;;;;;4.70;77.50;;;;;;4904394;28;19937;-44
2021/01/07 00:08:16;;;;;;;;;;;4.70;77.70;;;;;;4911302;28;20007;-44
2021/01/07 00:10:43;;;;;;;;;;;4.70;77.80;;;;;;4911010;28;19926;-43
2021/01/07 00:13:10;;;;;;;;;;;4.70;78.00;;;;;;4915624;28;19934;-43
2021/01/07 00:15:36;;;;;;;;;;;4.70;78.10;;;;;;4914564;28;19933;-44
2021/01/07 00:18:03;;;;;;;;;;;4.70;78.10;;;;;;4914386;28;19934;-45
2021/01/07 00:20:31;;;;;;;;;;;4.70;78.10;;;;;;4902558;28;19934;-44
2021/01/07 00:22:57;;;;;;;;;;;4.70;78.00;;;;;;4906636;28;19926;-43
2021/01/07 00:25:29;;;;;;;;;;;4.70;78.00;;;;;;4916179;28;19926;-45
2021/01/07 00:27:55;;;;;;;;;;;4.70;78.10;;;;;;4912643;28;19934;-44
2021/01/07 00:30:21;;;;;;;;;;;4.70;78.10;;;;;;4915109;28;19934;-45
2021/01/07 00:32:47;;;;;;;;;;;4.60;78.30;;;;;;4911334;28;19973;-44
2021/01/07 00:35:14;;;;;;;;;;;4.70;78.40;;;;;;4912943;28;23206;-45
2021/01/07 00:37:40;;;;;;;;;;;4.70;78.40;;;;;;4913326;28;19941;-45
2021/01/07 00:40:09;;;;;;;;;;;4.60;78.50;;;;;;4920485;28;19934;-43
2021/01/07 00:42:35;;;;;;;;;;;4.60;78.50;;;;;;4893771;28;20366;-43
2021/01/07 00:45:02;;;;;;;;;;;4.60;78.60;;;;;;4892974;28;20043;-43
2021/01/07 00:47:31;;;;;;;;;;;4.60;78.60;;;;;;4912677;28;19926;-43
2021/01/07 00:49:57;;;;;;;;;;;4.60;78.20;;;;;;4909813;28;19927;-43
2021/01/07 00:52:24;;;;;;;;;;;4.60;78.20;;;;;;4903860;28;19940;-44
2021/01/07 00:54:51;;;;;;;;;;;4.50;78.10;;;;;;4913871;28;20309;-44
2021/01/07 00:57:17;;;;;;;;;;;4.50;78.10;;;;;;4912482;28;19935;-44
2021/01/07 00:59:43;;;;;;;;;;;4.50;77.90;;;;;;4916076;28;20581;-43
2021/01/07 01:02:10;;;;;;;;;;;4.50;77.80;;;;;;4909491;28;22944;-44
2021/01/07 01:04:37;;;;;;;;;;;4.50;77.20;;;;;;4913692;28;19941;-43
2021/01/07 01:07:03;;;;;;;;;;;4.40;77.20;;;;;;4905519;28;19939;-43
2021/01/07 01:09:30;;;;;;;;;;;4.40;77.10;;;;;;4914677;28;20279;-43
2021/01/07 01:11:56;;;;;;;;;;;4.40;76.90;;;;;;4910767;28;22222;-44
2021/01/07 01:14:22;;;;;;;;;;;4.40;76.40;;;;;;4912881;28;20406;-44
2021/01/07 01:16:49;;;;;;;;;;;4.40;76.20;;;;;;4908970;28;20490;-44
2021/01/07 01:19:17;;;;;;;;;;;4.30;76.30;;;;;;4916205;28;19940;-43
2021/01/07 01:21:43;;;;;;;;;;;4.40;75.60;;;;;;4910181;28;19941;-44
2021/01/07 01:24:10;;;;;;;;;;;4.40;75.60;;;;;;4910423;28;19937;-44
2021/01/07 01:26:37;;;;;;;;;;;4.30;75.40;;;;;;4916882;28;19930;-44
2021/01/07 01:29:03;;;;;;;;;;;4.30;75.50;;;;;;4912123;28;19970;-44
2021/01/07 01:31:36;;;;;;;;;;;4.30;75.40;;;;;;4912430;28;20378;-44
2021/01/07 01:34:06;;;;;;;;;;;4.30;75.10;;;;;;4907596;28;19930;-43
2021/01/07 01:36:32;;;;;;;;;;;4.30;75.10;;;;;;4910114;28;20306;-44
2021/01/07 01:38:58;;;;;;;;;;;4.30;75.20;;;;;;4912544;28;19926;-44
2021/01/07 01:41:25;;;;;;;;;;;4.20;75.40;;;;;;4917351;28;20011;-44
2021/01/07 01:43:52;;;;;;;;;;;4.20;75.70;;;;;;4904164;28;19962;-44
2021/01/07 01:46:18;;;;;;;;;;;4.20;75.30;;;;;;4913085;28;22000;-44
2021/01/07 01:48:46;;;;;;;;;;;4.20;75.10;;;;;;4912015;28;20316;-44
2021/01/07 01:51:12;;;;;;;;;;;4.10;75.30;;;;;;4915689;28;20025;-44
2021/01/07 01:53:40;;;;;;;;;;;4.10;75.40;;;;;;4911722;28;20468;-43
2021/01/07 01:56:07;;;;;;;;;;;4.10;75.40;;;;;;4924303;28;19937;-43
2021/01/07 01:58:37;;;;;;;;;;;4.10;75.40;;;;;;4910842;28;19930;-45
2021/01/07 02:01:03;;;;;;;;;;;4.20;75.20;;;;;;4910669;28;19934;-45
2021/01/07 02:03:32;;;;;;;;;;;4.20;75.50;;;;;;4907505;28;19935;-44
2021/01/07 02:06:01;;;;;;;;;;;4.20;75.50;;;;;;4917345;28;19930;-47
2021/01/07 02:08:29;;;;;;;;;;;4.20;75.70;;;;;;4912397;28;20322;-43
2021/01/07 02:10:56;;;;;;;;;;;4.20;75.60;;;;;;4911379;28;19930;-43
2021/01/07 02:13:25;;;;;;;;;;;4.20;75.70;;;;;;4913712;28;19941;-44
2021/01/07 02:15:51;;;;;;;;;;;4.30;75.70;;;;;;4910784;28;19933;-44
2021/01/07 02:18:17;;;;;;;;;;;4.30;75.50;;;;;;4909961;28;20305;-44
2021/01/07 02:20:44;;;;;;;;;;;4.30;75.60;;;;;;4909486;28;19934;-44
2021/01/07 02:23:11;;;;;;;;;;;4.40;75.70;;;;;;4909121;28;20167;-44
2021/01/07 02:25:39;;;;;;;;;;;4.40;76.00;;;;;;4911537;28;19927;-44
2021/01/07 02:28:07;;;;;;;;;;;4.40;75.70;;;;;;4915038;28;20306;-43
2021/01/07 02:30:33;;;;;;;;;;;4.40;75.80;;;;;;4912172;28;19926;-44
2021/01/07 02:32:59;;;;;;;;;;;4.40;76.10;;;;;;4900523;28;19940;-44
2021/01/07 02:35:28;;;;;;;;;;;4.40;76.10;;;;;;4902211;28;20334;-44
2021/01/07 02:37:55;;;;;;;;;;;4.30;76.20;;;;;;4910151;28;19937;-44
2021/01/07 02:40:21;;;;;;;;;;;4.30;76.30;;;;;;4914760;28;19941;-44
2021/01/07 02:42:47;;;;;;;;;;;4.30;76.30;;;;;;4910220;28;19942;-43
2021/01/07 02:45:13;;;;;;;;;;;4.30;76.10;;;;;;4910740;28;20380;-44
2021/01/07 02:47:40;;;;;;;;;;;4.30;76.00;;;;;;4914299;28;20429;-43
2021/01/07 02:50:07;;;;;;;;;;;4.30;75.80;;;;;;4905766;28;19930;-44
2021/01/07 02:52:34;;;;;;;;;;;4.30;75.70;;;;;;4904445;28;19937;-44
2021/01/07 02:55:00;;;;;;;;;;;4.20;75.50;;;;;;4908520;28;20371;-43
2021/01/07 02:57:26;;;;;;;;;;;4.20;74.90;;;;;;4914495;28;19988;-44
2021/01/07 02:59:53;;;;;;;;;;;4.20;74.40;;;;;;4892545;28;19930;-45
2021/01/07 03:02:19;;;;;;;;;;;4.20;74.50;;;;;;4920230;28;19940;-44
2021/01/07 03:04:45;;;;;;;;;;;4.30;74.60;;;;;;4906477;28;20168;-44
2021/01/07 03:07:11;;;;;;;;;;;4.30;74.80;;;;;;4911786;28;20382;-43
2021/01/07 03:09:38;;;;;;;;;;;4.20;74.90;;;;;;4910912;28;20036;-45
2021/01/07 03:12:14;;;;;;;;;;;4.30;75.00;;;;;;4899238;28;19926;-43
2021/01/07 03:14:41;;;;;;;;;;;4.30;75.10;;;;;;4911124;28;19933;-44
2021/01/07 03:17:08;;;;;;;;;;;4.30;75.20;;;;;;4903435;28;20375;-43
2021/01/07 03:19:34;;;;;;;;;;;4.30;75.30;;;;;;4907645;28;20077;-44
2021/01/07 03:22:02;;;;;;;;;;;4.30;75.50;;;;;;4917189;28;19936;-44
2021/01/07 03:24:29;;;;;;;;;;;4.30;75.30;;;;;;4904232;28;19937;-43
2021/01/07 03:26:55;;;;;;;;;;;4.20;75.70;;;;;;4910459;28;19938;-44
2021/01/07 03:29:22;;;;;;;;;;;4.20;75.80;;;;;;4903978;28;20391;-43
2021/01/07 03:31:50;;;;;;;;;;;4.20;76.00;;;;;;4913802;28;20275;-43
2021/01/07 03:34:17;;;;;;;;;;;4.30;76.10;;;;;;4910381;28;19926;-44
2021/01/07 03:36:48;;;;;;;;;;;4.30;75.80;;;;;;4910485;28;19982;-44
2021/01/07 03:39:14;;;;;;;;;;;4.30;75.70;;;;;;4907082;28;20403;-44
2021/01/07 03:41:42;;;;;;;;;;;4.30;75.80;;;;;;4901975;28;20393;-44
2021/01/07 03:44:08;;;;;;;;;;;4.30;75.80;;;;;;4912776;28;20378;-43
2021/01/07 03:46:34;;;;;;;;;;;4.30;75.70;;;;;;4915724;28;19926;-43
2021/01/07 03:49:01;;;;;;;;;;;4.30;75.70;;;;;;4913254;28;20311;-43
2021/01/07 03:51:27;;;;;;;;;;;4.30;76.10;;;;;;4912156;28;20429;-43
2021/01/07 03:53:53;;;;;;;;;;;4.30;76.00;;;;;;4911464;28;19926;-44
2021/01/07 03:56:19;;;;;;;;;;;4.30;75.80;;;;;;4917002;28;19941;-43
2021/01/07 03:58:46;;;;;;;;;;;4.30;75.80;;;;;;4915786;28;19942;-44
2021/01/07 04:01:12;;;;;;;;;;;4.20;75.90;;;;;;4913651;28;20469;-44
2021/01/07 04:03:39;;;;;;;;;;;4.30;75.60;;;;;;4909907;28;20350;-44
2021/01/07 04:06:05;;;;;;;;;;;4.20;75.90;;;;;;4912556;28;19934;-43
2021/01/07 04:08:32;;;;;;;;;;;4.20;75.90;;;;;;4914040;28;20371;-43
2021/01/07 04:10:58;;;;;;;;;;;4.30;75.60;;;;;;4916609;28;20302;-44
2021/01/07 04:13:25;;;;;;;;;;;4.30;75.60;;;;;;4912831;28;19930;-44
2021/01/07 04:15:51;;;;;;;;;;;4.30;75.60;;;;;;4908430;28;20682;-43
2021/01/07 04:18:18;;;;;;;;;;;4.30;75.70;;;;;;4914403;28;19926;-44
2021/01/07 04:20:44;;;;;;;;;;;4.20;76.00;;;;;;4914040;28;20393;-43
2021/01/07 04:23:11;;;;;;;;;;;4.20;76.30;;;;;;4909884;28;20016;-44
2021/01/07 04:25:38;;;;;;;;;;;4.20;76.30;;;;;;4910017;28;20982;-43
2021/01/07 04:28:04;;;;;;;;;;;4.20;76.20;;;;;;4927437;28;19937;-44
2021/01/07 04:30:30;;;;;;;;;;;4.20;76.30;;;;;;4916929;28;19926;-44
2021/01/07 04:32:56;;;;;;;;;;;4.10;76.50;;;;;;4904960;28;20313;-43
2021/01/07 04:35:22;;;;;;;;;;;4.10;76.30;;;;;;4916149;28;19937;-45
2021/01/07 04:37:48;;;;;;;;;;;4.00;76.40;;;;;;4914639;28;19926;-44
2021/01/07 04:40:15;;;;;;;;;;;4.00;76.80;;;;;;4913619;28;20665;-43
2021/01/07 04:42:41;;;;;;;;;;;4.00;76.90;;;;;;4911843;28;20329;-44
2021/01/07 04:45:08;;;;;;;;;;;3.90;76.90;;;;;;4913921;28;19981;-43
2021/01/07 04:47:36;;;;;;;;;;;4.00;76.90;;;;;;4920962;28;20000;-44
2021/01/07 04:50:03;;;;;;;;;;;3.90;76.90;;;;;;4914517;28;19941;-44
2021/01/07 04:52:29;;;;;;;;;;;4.00;77.00;;;;;;4909574;28;19934;-43
2021/01/07 04:54:57;;;;;;;;;;;3.90;77.00;;;;;;4911741;28;19969;-44
2021/01/07 04:57:24;;;;;;;;;;;3.90;77.10;;;;;;4913110;28;19934;-44
2021/01/07 04:59:51;;;;;;;;;;;3.90;77.20;;;;;;4917038;28;20201;-44
2021/01/07 05:02:19;;;;;;;;;;;3.90;77.40;;;;;;4909835;28;19935;-43
2021/01/07 05:04:56;;;;;;;;;;;3.90;77.40;;;;;;4911159;28;20018;-44
2021/01/07 05:07:23;;;;;;;;;;;3.90;77.40;;;;;;4911414;28;19953;-43
2021/01/07 05:09:59;;;;;;;;;;;3.90;77.40;;;;;;4914774;28;20001;-43
2021/01/07 05:12:26;;;;;;;;;;;3.90;77.40;;;;;;4912779;28;19934;-45
2021/01/07 05:14:53;;;;;;;;;;;3.90;77.50;;;;;;4913629;28;20314;-44
2021/01/07 05:17:19;;;;;;;;;;;3.80;77.50;;;;;;4914340;28;19926;-44
2021/01/07 05:19:46;;;;;;;;;;;3.80;77.80;;;;;;4916284;28;19941;-43
2021/01/07 05:22:13;;;;;;;;;;;3.80;77.90;;;;;;4911251;28;20036;-45
2021/01/07 05:24:39;;;;;;;;;;;3.70;77.70;;;;;;4913042;28;19934;-43
2021/01/07 05:27:07;;;;;;;;;;;3.70;77.60;;;;;;4913656;28;20017;-43
2021/01/07 05:29:34;;;;;;;;;;;3.70;77.70;;;;;;4915497;28;19926;-44
2021/01/07 05:32:00;;;;;;;;;;;3.70;77.70;;;;;;4911446;28;19930;-43
2021/01/07 05:34:29;;;;;;;;;;;3.70;77.80;;;;;;4907417;28;19934;-44
2021/01/07 05:36:59;;;;;;;;;;;3.70;77.80;;;;;;4908595;28;19934;-44
2021/01/07 05:39:33;;;;;;;;;;;3.70;77.70;;;;;;4925556;28;19956;-44
2021/01/07 05:42:01;;;;;;;;;;;3.70;77.80;;;;;;4907418;28;19937;-43
2021/01/07 05:44:30;;;;;;;;;;;3.80;77.60;;;;;;4907400;28;24546;-44
2021/01/07 05:46:57;;;;;;;;;;;3.70;77.40;;;;;;4909234;28;19930;-44
2021/01/07 05:49:33;;;;;;;;;;;3.70;77.20;;;;;;4904437;28;20306;-45
2021/01/07 05:52:02;;;;;;;;;;;3.70;77.30;;;;;;4909112;28;20524;-44
2021/01/07 05:54:29;;;;;;;;;;;3.70;77.20;;;;;;4911700;28;19930;-44
2021/01/07 05:56:55;;;;;;;;;;;3.70;77.30;;;;;;4910912;28;19930;-43
2021/01/07 05:59:22;;;;;;;;;;;3.70;77.20;;;;;;4910649;28;19934;-44
2021/01/07 06:01:49;;;;;;;;;;;3.80;77.10;;;;;;4907400;28;19937;-45
2021/01/07 06:04:17;;;;;;;;;;;3.80;77.00;;;;;;4909876;28;19933;-44
2021/01/07 06:06:43;;;;;;;;;;;3.80;77.00;;;;;;4909012;28;19926;-45
2021/01/07 06:09:09;;;;;;;;;;;3.80;77.10;;;;;;4915597;28;19930;-44
2021/01/07 06:11:35;;;;;;;;;;;3.80;77.00;;;;;;4908177;28;19934;-44
2021/01/07 06:14:02;;;;;;;;;;;3.80;76.90;;;;;;4909754;28;19934;-44
2021/01/07 06:16:28;;;;;;;;;;;3.70;76.70;;;;;;4912060;28;19926;-44
2021/01/07 06:19:16;;;;;;;;;;;3.70;76.80;;;;;;4899967;28;20005;-43
2021/01/07 06:21:47;;;;;;;;;;;3.70;77.00;;;;;;4914541;28;19934;-44
2021/01/07 06:24:16;;;;;;;;;;;3.70;77.00;;;;;;4923129;28;20370;-45
2021/01/07 06:26:44;;;;;;;;;;;3.70;76.90;;;;;;4907929;28;19934;-44
2021/01/07 06:29:11;;;;;;;;;;;3.70;76.90;;;;;;4909403;28;19940;-43
2021/01/07 06:31:38;;;;;;;;;;;3.70;77.00;;;;;;4910460;28;19930;-43
2021/01/07 06:34:04;;;;;;;;;;;3.70;76.80;;;;;;4911401;28;19934;-44
2021/01/07 06:36:39;;;;;;;;;;;3.70;76.80;;;;;;4906681;28;20068;-44
2021/01/07 06:39:06;;;;;;;;;;;3.70;76.80;;;;;;4906570;28;19951;-44
2021/01/07 06:41:32;;;;;;;;;;;3.70;76.80;;;;;;4908330;28;19926;-44
2021/01/07 06:43:59;;;;;;;;;;;3.70;76.90;;;;;;4911314;28;19930;-44
2021/01/07 06:46:42;;;;;;;;;;;3.70;76.80;;;;;;4918197;28;20353;-44
2021/01/07 06:49:21;;;;;;;;;;;3.70;76.80;;;;;;4917690;28;19937;-44
2021/01/07 06:52:12;;;;;;;;;;;3.70;76.70;;;;;;4919670;28;19924;-44
2021/01/07 06:54:42;;;;;;;;;;;3.70;76.80;;;;;;4910679;28;19934;-44
2021/01/07 06:57:11;;;;;;;;;;;3.70;76.80;;;;;;4910239;28;19952;-43
2021/01/07 06:59:52;;;;;;;;;;;3.70;76.90;;;;;;4912388;28;19930;-45
2021/01/07 07:02:19;;;;;;;;;;;3.70;77.10;;;;;;4914296;28;20068;-43
2021/01/07 07:04:46;;;;;;;;;;;3.70;77.10;;;;;;4912502;28;19926;-43
2021/01/07 07:07:15;;;;;;;;;;;3.70;77.20;;;;;;4911246;28;20379;-45
2021/01/07 07:09:44;;;;;;;;;;;3.80;77.10;;;;;;4914256;28;20436;-44
2021/01/07 07:12:28;;;;;;;;;;;3.80;77.20;;;;;;4910946;28;19937;-43
2021/01/07 07:14:57;;;;;;;;;;;3.80;77.20;;;;;;4910059;28;19934;-43
2021/01/07 07:17:23;;;;;;;;;;;3.90;77.10;;;;;;4908471;28;19933;-44
2021/01/07 07:19:52;;;;;;;;;;;3.90;77.20;;;;;;4905478;28;19926;-43
2021/01/07 07:22:19;;;;;;;;;;;3.90;77.20;;;;;;4920390;28;19941;-43
2021/01/07 07:24:49;;;;;;;;;;;3.90;77.00;;;;;;4911134;28;19934;-43
2021/01/07 07:27:17;;;;;;;;;;;3.90;77.20;;;;;;4910321;28;20353;-44
2021/01/07 07:29:48;;;;;;;;;;;3.90;77.20;;;;;;4907995;28;19930;-45
2021/01/07 07:32:25;;;;;;;;;;;3.90;77.10;;;;;;4908413;28;19934;-43
2021/01/07 07:34:52;;;;;;;;;;;3.90;77.20;;;;;;4910516;28;19930;-43
2021/01/07 07:37:22;;;;;;;;;;;3.80;77.20;;;;;;4910384;28;20294;-45
2021/01/07 07:39:50;;;;;;;;;;;3.80;77.20;;;;;;4907427;28;19926;-44
2021/01/07 07:42:17;;;;;;;;;;;3.80;77.20;;;;;;4909281;28;19937;-43
2021/01/07 07:44:43;;;;;;;;;;;3.80;77.30;;;;;;4912332;28;19930;-43
2021/01/07 07:47:10;;;;;;;;;;;3.90;77.50;;;;;;4909297;28;20366;-44
2021/01/07 07:49:36;;;;;;;;;;;3.90;77.40;;;;;;4900177;28;21149;-44
2021/01/07 07:52:03;;;;;;;;;;;3.90;77.10;;;;;;4908246;28;19930;-43
2021/01/07 07:54:29;;;;;;;;;;;3.90;77.20;;;;;;4905375;28;20306;-42
2021/01/07 07:57:01;;;;;;;;;;;4.00;77.20;;;;;;4911078;28;20294;-44
2021/01/07 07:59:32;;;;;;;;;;;4.00;77.10;;;;;;4908375;28;20493;-43
2021/01/07 08:02:03;;;;;;;;;;;4.00;77.20;;;;;;4913148;28;22111;-45
2021/01/07 08:04:29;;;;;;;;;;;4.00;77.10;;;;;;4906846;28;19934;-44
2021/01/07 08:06:55;;;;;;;;;;;4.00;76.90;;;;;;4911947;28;19930;-43
2021/01/07 08:09:22;;;;;;;;;;;3.90;76.80;;;;;;4909351;28;19926;-42
2021/01/07 08:11:52;;;;;;;;;;;3.90;76.30;;;;;;4905523;28;19933;-44
2021/01/07 08:14:22;;;;;;;;;;;3.90;76.20;;;;;;4902051;28;19934;-44
2021/01/07 08:16:55;;;;;;;;;;;3.90;76.20;;;;;;4905100;28;19934;-43
2021/01/07 08:19:30;;;;;;;;;;;3.80;76.10;;;;;;4904157;28;21099;-43
2021/01/07 08:21:56;;;;;;;;;;;3.80;76.10;;;;;;4910013;28;19926;-43
2021/01/07 08:24:24;;;;;;;;;;;3.80;76.60;;;;;;4910423;28;20194;-43
2021/01/07 08:26:58;;;;;;;;;;;3.80;76.40;;;;;;4906988;28;19926;-44
2021/01/07 08:29:26;;;;;;;;;;;3.80;76.10;;;;;;4909823;28;19930;-44
2021/01/07 08:31:52;;;;;;;;;;;3.80;76.10;;;;;;4907228;28;19934;-43
2021/01/07 08:34:19;;;;;;;;;;;3.80;76.00;;;;;;4908262;28;20293;-43
2021/01/07 08:36:49;;;;;;;;;;;3.80;76.20;;;;;;4917632;28;19988;-44
2021/01/07 08:39:15;;;;;;;;;;;3.80;76.30;;;;;;4908260;28;19928;-43
2021/01/07 08:41:45;;;;;;;;;;;3.80;75.80;;;;;;4904365;28;23994;-43
2021/01/07 08:44:11;;;;;;;;;;;3.80;75.90;;;;;;4905924;28;19938;-42
2021/01/07 08:46:41;;;;;;;;;;;3.80;75.20;;;;;;4928335;28;19926;-43
2021/01/07 08:49:20;;;;;;;;;;;3.80;75.50;;;;;;4913061;28;20020;-44
2021/01/07 08:51:54;;;;;;;;;;;3.80;75.90;;;;;;4912659;28;20306;-43
2021/01/07 08:54:23;;;;;;;;;;;3.90;75.70;;;;;;4909992;28;19934;-43
2021/01/07 08:56:50;;;;;;;;;;;3.90;75.40;;;;;;4912207;28;19930;-43
2021/01/07 08:59:19;;;;;;;;;;;3.90;75.40;;;;;;4914286;28;19934;-41
2021/01/07 09:01:51;;;;;;;;;;;3.80;75.20;;;;;;4906012;28;19943;-45
2021/01/07 09:04:24;;;;;;;;;;;3.80;75.40;;;;;;4912562;28;19930;-42
2021/01/07 09:06:57;;;;;;;;;;;3.90;75.20;;;;;;4909670;28;20310;-43
2021/01/07 09:09:24;;;;;;;;;;;3.90;75.20;;;;;;4912300;28;20012;-43
2021/01/07 09:12:06;;;;;;;;;;;3.90;74.80;;;;;;4908044;28;20063;-41
2021/01/07 09:14:46;;;;;;;;;;;3.90;74.80;;;;;;4915231;28;19933;-45
2021/01/07 09:17:16;;;;;;;;;;;3.80;75.00;;;;;;4925924;28;19933;-44
2021/01/07 09:19:43;;;;;;;;;;;3.80;75.30;;;;;;4914114;28;19926;-44
2021/01/07 09:22:15;;;;;;;;;;;3.70;74.90;;;;;;4910021;28;20018;-43
2021/01/07 09:24:41;;;;;;;;;;;3.70;75.30;;;;;;4912138;28;19929;-45
2021/01/07 09:27:17;;;;;;;;;;;3.70;75.60;;;;;;4909757;28;19934;-44
2021/01/07 09:29:45;;;;;;;;;;;3.70;76.00;;;;;;4913471;28;19926;-44
2021/01/07 09:32:12;;;;;;;;;;;3.70;75.90;;;;;;4899825;28;19941;-46
2021/01/07 09:34:38;;;;;;;;;;;3.70;75.90;;;;;;4906319;28;20398;-46
2021/01/07 09:37:07;;;;;;;;;;;3.70;75.60;;;;;;4916557;28;19930;-45
2021/01/07 09:39:33;;;;;;;;;;;3.60;75.70;;;;;;4910625;28;19953;-46
2021/01/07 09:42:00;;;;;;;;;;;3.60;75.50;;;;;;4906409;28;26567;-46
2021/01/07 09:44:26;;;;;;;;;;;3.60;75.80;;;;;;4908782;28;20489;-45
2021/01/07 09:46:54;;;;;;;;;;;3.70;76.00;;;;;;4917059;28;20076;-45
2021/01/07 09:49:21;;;;;;;;;;;3.70;75.80;;;;;;4915219;28;20371;-46
2021/01/07 09:51:48;;;;;;;;;;;3.70;75.80;;;;;;4912376;28;20087;-44
2021/01/07 09:54:15;;;;;;;;;;;3.70;76.00;;;;;;4900486;28;19941;-46
2021/01/07 09:56:42;;;;;;;;;;;3.70;76.30;;;;;;4905468;28;19934;-45
2021/01/07 09:59:09;;;;;;;;;;;3.80;76.40;;;;;;4923642;28;19946;-47
2021/01/07 10:01:35;;;;;;;;;;;3.70;76.10;;;;;;4910856;28;20279;-43
2021/01/07 10:04:04;;;;;;;;;;;3.80;76.10;;;;;;4913150;28;19925;-42
2021/01/07 10:06:31;;;;;;;;;;;3.80;76.00;;;;;;4907296;28;19932;-45
2021/01/07 10:08:57;;;;;;;;;;;3.80;75.80;;;;;;4912196;28;19934;-43
2021/01/07 10:11:24;;;;;;;;;;;3.90;75.70;;;;;;4908095;28;19930;-44
2021/01/07 10:13:50;;;;;;;;;;;3.90;75.80;;;;;;4911995;28;19957;-44
2021/01/07 10:16:16;;;;;;;;;;;3.90;75.40;;;;;;4915015;28;19934;-43
2021/01/07 10:18:43;;;;;;;;;;;3.90;75.20;;;;;;4914425;28;19957;-44
2021/01/07 10:21:10;;;;;;;;;;;3.90;74.90;;;;;;4909323;28;19977;-45
2021/01/07 10:23:40;;;;;;;;;;;3.90;74.40;;;;;;4909238;28;19926;-45
2021/01/07 10:26:06;;;;;;;;;;;3.90;74.60;;;;;;4903593;28;19996;-43
2021/01/07 10:28:32;;;;;;;;;;;3.80;74.60;;;;;;4917254;28;19934;-46
2021/01/07 10:31:01;;;;;;;;;;;3.80;74.80;;;;;;4907488;28;19926;-46
2021/01/07 10:33:30;;;;;;;;;;;3.90;75.20;;;;;;4901284;28;19934;-47
2021/01/07 10:35:57;;;;;;;;;;;3.90;75.30;;;;;;4910716;28;19967;-43
2021/01/07 10:38:23;;;;;;;;;;;3.90;75.20;;;;;;4910976;28;20025;-45
2021/01/07 10:40:51;;;;;;;;;;;3.90;75.00;;;;;;4912479;28;19949;-45
2021/01/07 10:43:21;;;;;;;;;;;3.90;75.10;;;;;;4912215;28;20092;-46
2021/01/07 10:45:49;;;;;;;;;;;3.90;75.10;;;;;;4909558;28;19999;-46
2021/01/07 10:48:18;;;;;;;;;;;4.00;75.00;;;;;;4903929;28;19946;-45
2021/01/07 10:50:46;;;;;;;;;;;4.00;74.70;;;;;;4908847;28;20016;-46
2021/01/07 10:53:32;;;;;;;;;;;4.00;74.50;;;;;;4905829;28;19957;-46
2021/01/07 10:56:10;;;;;;;;;;;4.00;74.50;;;;;;4907190;28;19931;-46
2021/01/07 10:58:37;;;;;;;;;;;4.00;74.30;;;;;;4924226;28;19927;-44
2021/01/07 11:01:12;;;;;;;;;;;4.00;74.20;;;;;;4909524;28;19940;-45
2021/01/07 11:03:54;;;;;;;;;;;4.00;74.10;;;;;;4918754;28;19933;-44
2021/01/07 11:06:21;;;;;;;;;;;3.90;74.00;;;;;;4904659;28;19934;-46
2021/01/07 11:08:51;;;;;;;;;;;3.90;73.60;;;;;;4909370;28;19926;-43
2021/01/07 11:11:24;;;;;;;;;;;3.90;74.10;;;;;;4908087;28;20016;-45
2021/01/07 11:14:05;;;;;;;;;;;3.90;73.60;;;;;;4906457;28;20024;-45
2021/01/07 11:16:47;;;;;;;;;;;3.90;73.50;;;;;;4908693;28;19966;-44
2021/01/07 11:19:20;;;;;;;;;;;3.90;73.90;;;;;;4923206;28;20058;-42
2021/01/07 11:21:51;;;;;;;;;;;3.90;73.70;;;;;;4908626;28;20062;-44
2021/01/07 11:24:18;;;;;;;;;;;3.90;73.70;;;;;;4905369;28;19940;-43
2021/01/07 11:26:45;;;;;;;;;;;4.00;74.20;;;;;;4903505;28;19958;-45
2021/01/07 11:29:11;;;;;;;;;;;4.00;74.30;;;;;;4907047;28;19934;-46
2021/01/07 11:31:51;;;;;;;;;;;4.00;74.10;;;;;;4903406;28;19988;-45
2021/01/07 11:34:19;;;;;;;;;;;4.10;74.10;;;;;;4914580;28;19926;-45
2021/01/07 11:36:53;;;;;;;;;;;4.10;74.10;;;;;;4900124;28;20820;-44
2021/01/07 11:39:21;;;;;;;;;;;4.10;73.70;;;;;;4900849;28;20286;-46
2021/01/07 11:42:10;;;;;;;;;;;4.00;73.50;;;;;;4905916;28;19930;-42
2021/01/07 11:44:41;;;;;;;;;;;4.10;73.50;;;;;;4886488;28;19926;-45
2021/01/07 11:47:10;;;;;;;;;;;4.10;73.50;;;;;;4903032;28;19930;-44
2021/01/07 11:49:39;;;;;;;;;;;4.20;73.20;;;;;;4908459;28;19937;-44
2021/01/07 11:52:06;;;;;;;;;;;4.20;73.50;;;;;;4913399;28;19940;-43
2021/01/07 11:54:36;;;;;;;;;;;4.20;73.60;;;;;;4907153;28;20399;-45
2021/01/07 11:57:03;;;;;;;;;;;4.20;73.70;;;;;;4910486;28;19936;-45
2021/01/07 11:59:30;;;;;;;;;;;4.20;73.60;;;;;;4911571;28;19934;-45
2021/01/07 12:01:57;;;;;;;;;;;4.20;73.40;;;;;;4909473;28;19926;-45
2021/01/07 12:04:25;;;;;;;;;;;4.20;73.40;;;;;;4907240;28;19956;-43
2021/01/07 12:07:01;;;;;;;;;;;4.20;73.30;;;;;;4912284;28;19926;-44
2021/01/07 12:09:34;;;;;;;;;;;4.30;73.10;;;;;;4911172;28;19930;-43
2021/01/07 12:12:06;;;;;;;;;;;4.30;73.20;;;;;;4903657;28;20406;-43
2021/01/07 12:14:42;;;;;;;;;;;4.30;72.90;;;;;;4912382;28;19930;-44
2021/01/07 12:17:12;;;;;;;;;;;4.30;73.10;;;;;;4910414;28;20085;-44
2021/01/07 12:19:40;;;;;;;;;;;4.30;72.50;;;;;;4911771;28;19934;-43
2021/01/07 12:22:07;;;;;;;;;;;4.30;72.50;;;;;;4906017;28;21003;-45
2021/01/07 12:24:34;;;;;;;;;;;4.30;72.30;;;;;;4916433;28;20356;-45
2021/01/07 12:27:01;;;;;;;;;;;4.30;72.40;;;;;;4911273;28;20572;-44
2021/01/07 12:29:28;;;;;;;;;;;4.30;72.70;;;;;;4925864;28;19930;-43
2021/01/07 12:31:56;;;;;;;;;;;4.40;72.90;;;;;;4897798;28;20004;-42
2021/01/07 12:34:41;;;;;;;;;;;4.40;72.90;;;;;;4924026;28;19937;-47
2021/01/07 12:37:15;;;;;;;;;;;4.40;72.30;;;;;;4913205;28;19965;-45
2021/01/07 12:40:10;;;;;;;;;;;4.50;72.50;;;;;;4914562;28;20000;-42
2021/01/07 12:42:39;;;;;;;;;;;4.50;72.10;;;;;;4914742;28;20390;-44
2021/01/07 12:45:09;;;;;;;;;;;4.50;72.10;;;;;;4914657;28;20477;-46
2021/01/07 12:47:35;;;;;;;;;;;4.50;72.00;;;;;;4912072;28;19934;-47
2021/01/07 12:50:02;;;;;;;;;;;4.50;71.70;;;;;;4913541;28;21019;-46
2021/01/07 12:52:30;;;;;;;;;;;4.40;72.10;;;;;;4915436;28;19930;-43
2021/01/07 12:54:59;;;;;;;;;;;4.40;72.40;;;;;;4911816;28;19933;-46
2021/01/07 12:57:35;;;;;;;;;;;4.40;72.70;;;;;;4912903;28;19933;-46
2021/01/07 13:00:03;;;;;;;;;;;4.50;72.90;;;;;;4902826;28;19936;-44
2021/01/07 13:02:39;;;;;;;;;;;4.50;72.90;;;;;;4911418;28;22287;-45
2021/01/07 13:05:17;;;;;;;;;;;4.50;72.70;;;;;;4910554;28;19926;-45
2021/01/07 13:07:45;;;;;;;;;;;4.40;72.70;;;;;;4913144;28;19937;-47
2021/01/07 13:10:11;;;;;;;;;;;4.40;72.90;;;;;;4916717;28;19930;-45
2021/01/07 13:12:39;;;;;;;;;;;4.40;73.20;;;;;;4913670;28;19941;-45
2021/01/07 13:15:10;;;;;;;;;;;4.50;72.80;;;;;;4914455;28;20045;-43
2021/01/07 13:17:39;;;;;;;;;;;4.50;72.60;;;;;;4913431;28;19927;-46
2021/01/07 13:20:06;;;;;;;;;;;4.50;72.80;;;;;;4912447;28;20354;-43
2021/01/07 13:22:32;;;;;;;;;;;4.60;72.60;;;;;;4915746;28;20303;-46
2021/01/07 13:24:59;;;;;;;;;;;4.60;72.40;;;;;;4916592;28;19930;-43
2021/01/07 13:27:27;;;;;;;;;;;4.50;72.90;;;;;;4917272;28;19930;-46
2021/01/07 13:29:54;;;;;;;;;;;4.50;73.20;;;;;;4910758;28;20406;-43
2021/01/07 13:32:21;;;;;;;;;;;4.50;72.70;;;;;;4911656;28;19938;-46
2021/01/07 13:34:53;;;;;;;;;;;4.50;72.50;;;;;;4910310;28;19930;-45
2021/01/07 13:37:21;;;;;;;;;;;4.60;72.60;;;;;;4909820;28;19953;-43
2021/01/07 13:39:47;;;;;;;;;;;4.60;72.60;;;;;;4914090;28;20394;-45
2021/01/07 13:42:14;;;;;;;;;;;4.70;72.70;;;;;;4909908;28;19936;-45
2021/01/07 13:44:45;;;;;;;;;;;4.70;72.70;;;;;;4910001;28;19926;-44
2021/01/07 13:47:13;;;;;;;;;;;4.80;72.40;;;;;;4928328;28;19934;-43
2021/01/07 13:49:40;;;;;;;;;;;4.80;72.20;;;;;;4914543;28;19926;-42
2021/01/07 13:52:09;;;;;;;;;;;4.80;71.90;;;;;;4910800;28;19926;-44
2021/01/07 13:54:37;;;;;;;;;;;4.90;71.70;;;;;;4910974;28;19930;-44
2021/01/07 13:57:05;;;;;;;;;;;4.90;71.80;;;;;;4915710;28;20397;-43
2021/01/07 13:59:34;;;;;;;;;;;4.90;71.90;;;;;;4910353;28;19926;-44
2021/01/07 14:02:02;;;;;;;;;;;5.00;71.80;;;;;;4911477;28;19934;-45
2021/01/07 14:04:28;;;;;;;;;;;5.00;71.10;;;;;;4909712;28;19926;-45
2021/01/07 14:06:55;;;;;;;;;;;5.00;71.30;;;;;;4914270;28;19934;-44
2021/01/07 14:09:21;;;;;;;;;;;5.00;71.30;;;;;;4922736;28;19941;-44
2021/01/07 14:11:48;;;;;;;;;;;5.00;71.10;;;;;;4908914;28;19934;-44
2021/01/07 14:14:16;;;;;;;;;;;5.00;71.00;;;;;;4905012;28;19926;-43
2021/01/07 14:16:46;;;;;;;;;;;5.00;71.20;;;;;;4914125;28;19930;-44
2021/01/07 14:19:15;;;;;;;;;;;5.00;71.20;;;;;;4910806;28;19941;-42
2021/01/07 14:21:42;;;;;;;;;;;4.90;71.10;;;;;;4910389;28;21037;-44
2021/01/07 14:24:13;;;;;;;;;;;4.90;71.20;;;;;;4909753;28;19934;-44
2021/01/07 14:26:46;;;;;;;;;;;5.00;71.50;;;;;;4910057;28;20135;-43
2021/01/07 14:29:14;;;;;;;;;;;5.00;71.50;;;;;;4909872;28;19942;-42
2021/01/07 14:31:41;;;;;;;;;;;5.00;71.20;;;;;;4906427;28;19926;-42
2021/01/07 14:34:07;;;;;;;;;;;5.00;71.40;;;;;;4913288;28;19930;-44
2021/01/07 14:36:39;;;;;;;;;;;4.90;71.50;;;;;;4903953;28;19996;-45
2021/01/07 14:39:06;;;;;;;;;;;4.80;71.90;;;;;;4907559;28;19941;-45